CheckWX is a tool to help pilots better visualize weather data.  It is not intended as a substitute for an official pre-flight weather briefing.

07:16:29 UTC

PABL METAR
Buckland Airport
Buckland, Alaska, USA
Current

20 mins ago

PABL 290656Z AUTO 36007KT 10SM CLR 12/01 A3034 RMK AO2 SLP275 T01220011
Observed
May-29 @ 06:56 UTC
Wind
  • 360° at 7 KTS
Visibility
Flight Rules
VFR
Cloud Levels
  • Clear skies
Temperature
12°C / 54°F
Dewpoint
C / 34°F
Humidity
47%
Altimeter
30.34" Hg
Pressure
1027.42 hPa
Previous

1 hour ago

PABL 290556Z AUTO 01008KT 10SM CLR 13/02 A3034 RMK AO2 SLP274 T01330017 10144 20128 57001
Observed
May-29 @ 05:56 UTC
Wind
  • 010° at 8 KTS
Visibility
Flight Rules
VFR
Cloud Levels
  • Clear skies
Temperature
13°C / 55°F
Dewpoint
C / 36°F
Humidity
47%
Altimeter
30.34" Hg
Pressure
1027.42 hPa
Previous

2 hours ago

PABL 290456Z AUTO 36010KT 10SM CLR 13/02 A3034 RMK AO2 SLP274 T01330022
Observed
May-29 @ 04:56 UTC
Wind
  • 360° at 10 KTS
Visibility
Flight Rules
VFR
Cloud Levels
  • Clear skies
Temperature
13°C / 55°F
Dewpoint
C / 36°F
Humidity
47%
Altimeter
30.34" Hg
Pressure
1027.42 hPa